Time;durP1;ratioP1;P1;durP2;ratioP2;P2;SDS_P1;SDS_P2;PMS_P1;PMS_P2;Temp;Humidity;BMP_temperature;BMP_pressure;BME280_temperature;BME280_humidity;BME280_pressure;Samples;Min_cycle;Max_cycle;Signal;HPM_P1;HPM_P2
2023/02/06 00:01:47;;;;;;;;;;;0.30;99.90;;;;;;5031085;28;19940;-81
2023/02/06 00:04:13;;;;;;;;;;;0.40;99.90;;;;;;5005009;28;19921;-82
2023/02/06 00:06:39;;;;;;;;;;;0.40;99.90;;;;;;5007029;28;19909;-82
2023/02/06 00:09:05;;;;;;;;;;;0.50;99.90;;;;;;5000994;28;19916;-81
2023/02/06 00:11:31;;;;;;;;;;;0.50;99.90;;;;;;4999616;28;20001;-82
2023/02/06 00:13:56;;;;;;;;;;;0.50;99.90;;;;;;5000460;28;19954;-81
2023/02/06 00:16:23;;;;;;;;;;;0.50;99.90;;;;;;5013742;28;19910;-81
2023/02/06 00:18:49;;;;;;;;;;;0.50;99.90;;;;;;5009196;28;19920;-81
2023/02/06 00:21:16;;;;;;;;;;;0.50;99.90;;;;;;5031135;28;19902;-81
2023/02/06 00:23:42;;;;;;;;;;;0.40;99.90;;;;;;5018429;28;19913;-82
2023/02/06 00:26:08;;;;;;;;;;;0.50;99.90;;;;;;5016376;28;19909;-81
2023/02/06 00:28:33;;;;;;;;;;;0.50;99.90;;;;;;5018437;28;20373;-82
2023/02/06 00:30:59;;;;;;;;;;;0.50;99.90;;;;;;5004804;28;19921;-81
2023/02/06 00:33:24;;;;;;;;;;;0.50;99.90;;;;;;4998123;28;19997;-81
2023/02/06 00:35:50;;;;;;;;;;;0.60;99.90;;;;;;4997801;28;20340;-81
2023/02/06 00:38:15;;;;;;;;;;;0.60;99.90;;;;;;4999034;28;20001;-83
2023/02/06 00:40:41;;;;;;;;;;;0.60;99.90;;;;;;4997796;28;19940;-82
2023/02/06 00:43:06;;;;;;;;;;;0.60;99.90;;;;;;5001237;28;19978;-80
2023/02/06 00:45:32;;;;;;;;;;;0.60;99.90;;;;;;5011711;28;19961;-80
2023/02/06 00:47:58;;;;;;;;;;;0.60;99.90;;;;;;5010723;28;19960;-81
2023/02/06 00:50:23;;;;;;;;;;;0.60;99.90;;;;;;4994930;28;19926;-82
2023/02/06 00:52:49;;;;;;;;;;;0.60;99.90;;;;;;4977966;28;20324;-82
2023/02/06 00:55:14;;;;;;;;;;;0.60;99.90;;;;;;4983369;28;19949;-82
2023/02/06 00:57:40;;;;;;;;;;;0.60;99.90;;;;;;5010583;28;19921;-81
2023/02/06 01:00:06;;;;;;;;;;;0.60;99.90;;;;;;4995436;28;19993;-83
2023/02/06 01:02:32;;;;;;;;;;;0.60;99.90;;;;;;4982125;28;19910;-83
2023/02/06 01:04:57;;;;;;;;;;;0.60;99.90;;;;;;4996992;28;19933;-82
2023/02/06 01:07:23;;;;;;;;;;;0.60;99.90;;;;;;5034043;28;19905;-81
2023/02/06 01:09:48;;;;;;;;;;;0.60;99.90;;;;;;5035519;28;19960;-81
2023/02/06 01:12:20;;;;;;;;;;;0.60;99.90;;;;;;5027215;28;19960;-83
2023/02/06 01:14:45;;;;;;;;;;;0.60;99.90;;;;;;5023920;28;19959;-83
2023/02/06 01:17:11;;;;;;;;;;;0.60;99.90;;;;;;5023493;28;19906;-83
2023/02/06 01:19:37;;;;;;;;;;;0.60;99.90;;;;;;5013932;28;19977;-82
2023/02/06 01:22:02;;;;;;;;;;;0.60;99.90;;;;;;5017940;28;19914;-83
2023/02/06 01:24:30;;;;;;;;;;;0.60;99.90;;;;;;5001279;28;19917;-84
2023/02/06 01:27:00;;;;;;;;;;;0.60;99.90;;;;;;5013736;28;19929;-82
2023/02/06 01:29:26;;;;;;;;;;;0.50;99.90;;;;;;5016133;28;19981;-81
2023/02/06 01:31:51;;;;;;;;;;;0.50;99.90;;;;;;5015920;28;19910;-80
2023/02/06 01:34:17;;;;;;;;;;;0.50;99.90;;;;;;5003089;28;19920;-81
2023/02/06 01:36:42;;;;;;;;;;;0.50;99.90;;;;;;4999404;28;19917;-82
2023/02/06 01:39:08;;;;;;;;;;;0.50;99.90;;;;;;5000705;28;19956;-82
2023/02/06 01:41:34;;;;;;;;;;;0.50;99.90;;;;;;5000579;28;19914;-82
2023/02/06 01:44:16;;;;;;;;;;;0.50;99.90;;;;;;4999365;28;19953;-83
2023/02/06 01:46:43;;;;;;;;;;;0.50;99.90;;;;;;5000656;28;20030;-82
2023/02/06 01:49:12;;;;;;;;;;;0.50;99.90;;;;;;5004406;28;20359;-83
2023/02/06 01:51:38;;;;;;;;;;;0.60;99.90;;;;;;5004928;28;19957;-82
2023/02/06 01:54:06;;;;;;;;;;;0.60;99.90;;;;;;5003534;28;19918;-82
2023/02/06 01:56:34;;;;;;;;;;;0.60;99.90;;;;;;5005201;28;20271;-84
2023/02/06 01:59:01;;;;;;;;;;;0.60;99.90;;;;;;5023696;28;19909;-82
2023/02/06 02:01:28;;;;;;;;;;;0.60;99.90;;;;;;5027003;28;19963;-82
2023/02/06 02:03:55;;;;;;;;;;;0.60;99.90;;;;;;5022441;28;19924;-81
2023/02/06 02:06:22;;;;;;;;;;;0.60;99.90;;;;;;5020519;28;19952;-83
2023/02/06 02:08:49;;;;;;;;;;;0.60;99.90;;;;;;5026999;28;19898;-81
2023/02/06 02:11:17;;;;;;;;;;;0.60;99.90;;;;;;5037428;28;19911;-80
2023/02/06 02:13:43;;;;;;;;;;;0.60;99.90;;;;;;5038698;28;19977;-82
2023/02/06 02:16:09;;;;;;;;;;;0.60;99.90;;;;;;5041213;28;19914;-82
2023/02/06 02:18:43;;;;;;;;;;;0.60;99.90;;;;;;5013983;28;19909;-82
2023/02/06 02:21:29;;;;;;;;;;;0.60;99.90;;;;;;5015989;28;19898;-81
2023/02/06 02:24:07;;;;;;;;;;;0.60;99.90;;;;;;5025104;28;19968;-80
2023/02/06 02:26:43;;;;;;;;;;;0.70;99.90;;;;;;5025029;28;19909;-81
2023/02/06 02:29:15;;;;;;;;;;;0.80;99.90;;;;;;5026935;28;19915;-82
2023/02/06 02:31:43;;;;;;;;;;;0.80;99.90;;;;;;5018405;28;19960;-82
2023/02/06 02:34:15;;;;;;;;;;;0.80;99.90;;;;;;5003256;28;19914;-81
2023/02/06 02:36:58;;;;;;;;;;;0.70;99.90;;;;;;5002433;28;19985;-82
2023/02/06 02:39:39;;;;;;;;;;;0.70;99.90;;;;;;5017185;28;19914;-81
2023/02/06 02:42:14;;;;;;;;;;;0.60;99.90;;;;;;5001980;28;20150;-81
2023/02/06 02:44:45;;;;;;;;;;;0.60;99.90;;;;;;5000049;28;20351;-80
2023/02/06 02:47:12;;;;;;;;;;;0.60;99.90;;;;;;5000111;28;19968;-82
2023/02/06 02:50:05;;;;;;;;;;;0.60;99.80;;;;;;5010751;28;19913;-83
2023/02/06 02:52:52;;;;;;;;;;;0.50;99.80;;;;;;5015565;28;19949;-81
2023/02/06 02:55:31;;;;;;;;;;;0.50;99.90;;;;;;5019118;28;19916;-81
2023/02/06 02:58:00;;;;;;;;;;;0.50;99.90;;;;;;5019348;28;20298;-82
2023/02/06 03:00:46;;;;;;;;;;;0.50;99.90;;;;;;5020489;28;19949;-83
2023/02/06 03:03:17;;;;;;;;;;;0.50;99.90;;;;;;5018311;28;19910;-81
2023/02/06 03:06:11;;;;;;;;;;;0.40;99.90;;;;;;5020200;28;19910;-82
2023/02/06 03:08:45;;;;;;;;;;;0.40;99.90;;;;;;4966244;28;19914;-82
2023/02/06 03:11:31;;;;;;;;;;;0.40;99.90;;;;;;4979806;28;19921;-82
2023/02/06 03:17:18;;;;;;;;;;;0.30;99.90;;;;;;4980663;28;19960;-82
2023/02/06 03:19:52;;;;;;;;;;;0.20;99.90;;;;;;4986966;28;19914;-82
2023/02/06 03:22:38;;;;;;;;;;;0.20;99.90;;;;;;5029592;28;19925;-80
2023/02/06 03:25:27;;;;;;;;;;;0.10;99.90;;;;;;5017958;28;20393;-80
2023/02/06 03:27:57;;;;;;;;;;;0.10;99.90;;;;;;5000269;28;19913;-82
2023/02/06 03:30:27;;;;;;;;;;;0.10;99.90;;;;;;4998328;28;19914;-82
2023/02/06 03:32:55;;;;;;;;;;;0.00;99.90;;;;;;4999203;28;19909;-82
2023/02/06 03:35:24;;;;;;;;;;;0.00;99.90;;;;;;4998908;28;19910;-81
2023/02/06 03:37:59;;;;;;;;;;;-0.10;99.90;;;;;;4998056;28;19982;-82
2023/02/06 03:40:29;;;;;;;;;;;0.00;99.90;;;;;;4998561;28;19909;-82
2023/02/06 03:43:11;;;;;;;;;;;0.00;99.90;;;;;;4998930;28;19917;-84
2023/02/06 03:45:42;;;;;;;;;;;0.00;99.90;;;;;;5012812;28;19922;-83
2023/02/06 03:48:10;;;;;;;;;;;0.00;99.90;;;;;;5013967;28;20316;-83
2023/02/06 03:50:38;;;;;;;;;;;0.00;99.90;;;;;;5001390;28;19948;-83
2023/02/06 03:53:04;;;;;;;;;;;0.00;99.90;;;;;;5019637;28;19976;-83
2023/02/06 03:55:29;;;;;;;;;;;0.00;99.90;;;;;;5017132;28;19929;-82
2023/02/06 03:57:57;;;;;;;;;;;-0.10;99.90;;;;;;5015087;28;19973;-83
2023/02/06 04:00:31;;;;;;;;;;;0.00;99.90;;;;;;4997833;28;19920;-82
2023/02/06 04:03:10;;;;;;;;;;;-0.10;99.90;;;;;;4999400;28;20363;-83
2023/02/06 04:06:17;;;;;;;;;;;-0.10;99.90;;;;;;4999388;28;19916;-82
2023/02/06 04:08:43;;;;;;;;;;;-0.30;99.90;;;;;;4997538;28;19910;-82
2023/02/06 04:11:28;;;;;;;;;;;-0.40;99.90;;;;;;4998862;28;19914;-83
2023/02/06 04:13:54;;;;;;;;;;;-0.50;99.90;;;;;;4997532;28;19920;-83
2023/02/06 04:16:39;;;;;;;;;;;-0.60;99.90;;;;;;4999053;28;19921;-82
2023/02/06 04:19:05;;;;;;;;;;;-0.70;99.90;;;;;;5007257;28;20488;-82
2023/02/06 04:21:30;;;;;;;;;;;-0.80;99.90;;;;;;5013826;28;19913;-81
2023/02/06 04:23:56;;;;;;;;;;;-0.80;99.90;;;;;;5018153;28;20293;-82
2023/02/06 04:26:34;;;;;;;;;;;-0.90;99.90;;;;;;5018309;28;20457;-81
2023/02/06 04:29:11;;;;;;;;;;;-0.90;99.90;;;;;;5017743;28;20343;-83
2023/02/06 04:31:39;;;;;;;;;;;-1.00;99.90;;;;;;5017174;28;19913;-82
2023/02/06 04:34:10;;;;;;;;;;;-1.00;99.90;;;;;;5016179;28;20338;-83
2023/02/06 04:36:36;;;;;;;;;;;-1.00;99.90;;;;;;5015583;28;19914;-82
2023/02/06 04:39:08;;;;;;;;;;;-1.10;99.90;;;;;;5030425;28;19918;-80
2023/02/06 04:41:33;;;;;;;;;;;-1.10;99.90;;;;;;5032038;28;19921;-81
2023/02/06 04:43:59;;;;;;;;;;;-1.10;99.90;;;;;;5032913;28;19940;-82
2023/02/06 04:46:25;;;;;;;;;;;-1.20;99.90;;;;;;5023555;28;20316;-83
2023/02/06 04:48:50;;;;;;;;;;;-1.20;99.90;;;;;;5005984;28;19917;-83
2023/02/06 04:51:16;;;;;;;;;;;-1.20;99.90;;;;;;5011735;28;19933;-83
2023/02/06 04:53:41;;;;;;;;;;;-1.20;99.90;;;;;;5007876;28;19981;-82
2023/02/06 04:56:08;;;;;;;;;;;-1.20;99.90;;;;;;4999759;28;19917;-83
2023/02/06 04:58:34;;;;;;;;;;;-1.20;99.90;;;;;;4998805;28;20282;-83
2023/02/06 05:00:59;;;;;;;;;;;-1.10;99.90;;;;;;5007684;28;19913;-82
2023/02/06 05:03:28;;;;;;;;;;;-1.10;99.90;;;;;;5017258;28;19898;-80
2023/02/06 05:05:54;;;;;;;;;;;-1.10;99.90;;;;;;5010691;28;19909;-82
2023/02/06 05:08:19;;;;;;;;;;;-1.10;99.90;;;;;;5012288;28;19917;-79
2023/02/06 05:10:45;;;;;;;;;;;-1.10;99.90;;;;;;5012174;28;19918;-78
2023/02/06 05:13:11;;;;;;;;;;;-1.10;99.90;;;;;;5022424;28;20017;-79
2023/02/06 05:15:36;;;;;;;;;;;-1.20;99.90;;;;;;5018086;28;19910;-80
2023/02/06 05:18:05;;;;;;;;;;;-1.20;99.90;;;;;;5016903;28;19953;-80
2023/02/06 05:20:33;;;;;;;;;;;-1.20;99.90;;;;;;5027667;28;19910;-81
2023/02/06 05:22:59;;;;;;;;;;;-1.20;99.90;;;;;;4991720;28;19992;-80
2023/02/06 05:25:25;;;;;;;;;;;-1.20;99.90;;;;;;5005068;28;20033;-81
2023/02/06 05:27:50;;;;;;;;;;;-1.20;99.90;;;;;;5013634;28;19918;-79
2023/02/06 05:30:16;;;;;;;;;;;-1.20;99.90;;;;;;5008361;28;19918;-79
2023/02/06 05:32:42;;;;;;;;;;;-1.30;99.90;;;;;;5005151;28;19910;-79
2023/02/06 05:35:08;;;;;;;;;;;-1.30;99.90;;;;;;5003530;28;19934;-79
2023/02/06 05:37:33;;;;;;;;;;;-1.30;99.90;;;;;;5005008;28;19920;-79
2023/02/06 05:39:59;;;;;;;;;;;-1.30;99.90;;;;;;5005145;28;20004;-81
2023/02/06 05:42:27;;;;;;;;;;;-1.30;99.90;;;;;;5024044;28;20333;-79
2023/02/06 05:44:59;;;;;;;;;;;-1.40;99.90;;;;;;5023870;28;19909;-78
2023/02/06 05:47:25;;;;;;;;;;;-1.30;99.90;;;;;;5022156;28;19972;-79
2023/02/06 05:55:11;;;;;;;;;;;-1.30;99.90;;;;;;5576963;23;19926;-79
2023/02/06 05:57:39;;;;;;;;;;;-1.30;99.90;;;;;;5000460;28;19920;-79
2023/02/06 06:00:05;;;;;;;;;;;-1.30;99.90;;;;;;4979819;28;19926;-80
2023/02/06 06:02:30;;;;;;;;;;;-1.30;99.90;;;;;;4961262;29;19910;-79
2023/02/06 06:04:56;;;;;;;;;;;-1.30;99.90;;;;;;4961735;29;20277;-81
2023/02/06 06:07:22;;;;;;;;;;;-1.30;99.90;;;;;;4961044;29;19910;-80
2023/02/06 06:09:48;;;;;;;;;;;-1.30;99.90;;;;;;4962198;29;20539;-80
2023/02/06 06:12:13;;;;;;;;;;;-1.30;99.90;;;;;;4962932;29;20054;-80
2023/02/06 06:14:39;;;;;;;;;;;-1.30;99.90;;;;;;4985358;28;19994;-81
2023/02/06 06:17:04;;;;;;;;;;;-1.30;99.90;;;;;;4988494;28;19910;-80
2023/02/06 06:19:30;;;;;;;;;;;-1.40;99.90;;;;;;4977932;28;19997;-79
2023/02/06 06:21:55;;;;;;;;;;;-1.40;99.90;;;;;;4981545;28;20251;-79
2023/02/06 06:24:21;;;;;;;;;;;-1.40;99.90;;;;;;4980016;28;19918;-80
2023/02/06 06:26:47;;;;;;;;;;;-1.30;99.90;;;;;;4978765;28;19910;-80
2023/02/06 06:29:12;;;;;;;;;;;-1.40;99.90;;;;;;4979949;28;19910;-81
2023/02/06 06:31:38;;;;;;;;;;;-1.30;99.90;;;;;;4979362;28;20493;-80
2023/02/06 06:34:03;;;;;;;;;;;-1.30;99.90;;;;;;4979366;28;19985;-80
2023/02/06 06:36:29;;;;;;;;;;;-1.30;99.90;;;;;;4980598;28;20256;-80
2023/02/06 06:38:54;;;;;;;;;;;-1.40;99.90;;;;;;4980823;28;20288;-80
2023/02/06 06:41:20;;;;;;;;;;;-1.40;99.90;;;;;;4981977;28;19910;-82
2023/02/06 06:43:45;;;;;;;;;;;-1.30;99.90;;;;;;4988486;28;19898;-79
2023/02/06 06:46:11;;;;;;;;;;;-1.30;99.90;;;;;;4998121;28;19928;-80
2023/02/06 06:48:37;;;;;;;;;;;-1.40;99.90;;;;;;4985783;28;19903;-80
2023/02/06 06:51:03;;;;;;;;;;;-1.30;99.90;;;;;;4979558;28;20062;-80
2023/02/06 06:53:28;;;;;;;;;;;-1.30;99.90;;;;;;4979407;28;19903;-81
2023/02/06 06:55:54;;;;;;;;;;;-1.30;99.90;;;;;;4991741;28;19970;-81
2023/02/06 06:58:19;;;;;;;;;;;-1.30;99.90;;;;;;4962350;29;19911;-82
2023/02/06 07:00:45;;;;;;;;;;;-1.30;99.90;;;;;;4965198;29;19910;-81
2023/02/06 07:03:11;;;;;;;;;;;-1.30;99.90;;;;;;4975023;28;19910;-81
2023/02/06 07:05:37;;;;;;;;;;;-1.30;99.90;;;;;;4975121;29;19985;-80
2023/02/06 07:08:06;;;;;;;;;;;-1.20;99.90;;;;;;4988844;28;19911;-81
2023/02/06 07:10:31;;;;;;;;;;;-1.30;99.90;;;;;;4962565;28;19922;-80
2023/02/06 07:12:57;;;;;;;;;;;-1.20;99.90;;;;;;4961194;29;20261;-80
2023/02/06 07:15:23;;;;;;;;;;;-1.20;99.90;;;;;;4962166;29;19925;-81
2023/02/06 07:17:48;;;;;;;;;;;-1.20;99.90;;;;;;4957207;29;19918;-79
2023/02/06 07:20:14;;;;;;;;;;;-1.20;99.90;;;;;;4968506;28;20343;-81
2023/02/06 07:22:40;;;;;;;;;;;-1.30;99.90;;;;;;4983922;28;19996;-81
2023/02/06 07:25:06;;;;;;;;;;;-1.30;99.90;;;;;;4997363;28;20017;-80
2023/02/06 07:27:31;;;;;;;;;;;-1.40;99.90;;;;;;4991530;28;20002;-79
2023/02/06 07:29:58;;;;;;;;;;;-1.40;99.90;;;;;;4992785;28;19910;-80
2023/02/06 07:32:24;;;;;;;;;;;-1.40;99.90;;;;;;4985299;28;20000;-81
2023/02/06 07:34:49;;;;;;;;;;;-1.40;99.90;;;;;;4985805;28;19910;-81
2023/02/06 07:37:15;;;;;;;;;;;-1.40;99.90;;;;;;4994674;28;19917;-79
2023/02/06 07:39:40;;;;;;;;;;;-1.30;99.90;;;;;;4995915;28;19918;-79
2023/02/06 07:42:07;;;;;;;;;;;-1.30;99.90;;;;;;4991284;28;19910;-79
2023/02/06 07:44:32;;;;;;;;;;;-1.20;99.90;;;;;;4981894;28;19946;-81
2023/02/06 07:46:58;;;;;;;;;;;-1.10;99.90;;;;;;4974461;28;20356;-81
2023/02/06 08:10:48;;;;;;;;;;;;;;;;;;;;;
2023/02/06 08:13:18;;;;;;;;;;;0.60;99.70;;;;;;5001133;28;20012;-79
2023/02/06 08:16:13;;;;;;;;;;;;;;;;;;;;;
2023/02/06 08:21:45;;;;;;;;;;;-0.20;99.60;;;;;;5018629;28;19953;-81
2023/02/06 08:24:39;;;;;;;;;;;0.30;99.40;;;;;;5019820;28;19955;-80
2023/02/06 08:30:49;;;;;;;;;;;2.20;93.70;;;;;;4997634;28;20000;-81
2023/02/06 08:33:23;;;;;;;;;;;1.80;92.00;;;;;;4941139;29;19911;-82
2023/02/06 08:35:52;;;;;;;;;;;1.40;92.40;;;;;;4962156;29;19922;-81
2023/02/06 08:38:38;;;;;;;;;;;1.10;92.40;;;;;;4961401;29;19934;-83
2023/02/06 08:41:21;;;;;;;;;;;1.00;92.70;;;;;;4951604;28;20344;-84
2023/02/06 08:43:47;;;;;;;;;;;0.80;92.40;;;;;;4980792;28;20414;-83
2023/02/06 08:46:13;;;;;;;;;;;0.80;92.50;;;;;;5013679;28;19909;-81
2023/02/06 08:48:39;;;;;;;;;;;0.80;92.10;;;;;;5010585;28;19909;-84
2023/02/06 08:51:05;;;;;;;;;;;0.80;92.20;;;;;;5044504;28;19921;-81
2023/02/06 08:53:31;;;;;;;;;;;0.80;92.00;;;;;;5041613;28;19952;-83
2023/02/06 08:56:05;;;;;;;;;;;0.80;91.80;;;;;;5041230;28;19921;-82
2023/02/06 08:58:31;;;;;;;;;;;0.70;91.60;;;;;;5044152;28;19979;-81
2023/02/06 09:00:56;;;;;;;;;;;0.80;91.60;;;;;;5063038;28;20370;-82
2023/02/06 09:03:27;;;;;;;;;;;0.80;91.80;;;;;;5049263;28;20342;-81
2023/02/06 09:10:08;;;;;;;;;;;0.90;91.90;;;;;;5057388;28;19968;-79
2023/02/06 09:16:04;;;;;;;;;;;;;;;;;;;;;
2023/02/06 09:18:34;;;;;;;;;;;1.30;90.60;;;;;;5005333;28;19985;-82
2023/02/06 09:21:03;;;;;;;;;;;1.30;90.90;;;;;;5006232;28;20374;-80
2023/02/06 09:23:29;;;;;;;;;;;1.60;90.80;;;;;;5023543;28;19985;-80
2023/02/06 09:26:04;;;;;;;;;;;1.70;90.00;;;;;;5021555;28;20107;-80
2023/02/06 09:28:30;;;;;;;;;;;1.50;88.60;;;;;;5000193;28;19917;-82
2023/02/06 09:30:56;;;;;;;;;;;1.50;89.50;;;;;;5002796;28;19918;-80
2023/02/06 09:33:22;;;;;;;;;;;1.70;90.30;;;;;;5008131;28;19910;-80
2023/02/06 09:35:47;;;;;;;;;;;2.00;90.20;;;;;;5002554;28;19917;-82
2023/02/06 09:38:13;;;;;;;;;;;2.00;89.70;;;;;;5010030;28;19917;-80
2023/02/06 09:40:38;;;;;;;;;;;2.10;88.60;;;;;;5023175;28;19996;-81
2023/02/06 09:43:04;;;;;;;;;;;1.90;87.30;;;;;;5020189;28;19922;-79
2023/02/06 09:45:31;;;;;;;;;;;1.70;87.60;;;;;;5004598;28;19949;-81
2023/02/06 09:48:16;;;;;;;;;;;1.80;87.20;;;;;;5027142;28;19939;-79
2023/02/06 09:50:41;;;;;;;;;;;1.70;87.70;;;;;;5021510;28;19914;-78
2023/02/06 09:53:10;;;;;;;;;;;1.80;88.60;;;;;;5017942;28;19909;-80
2023/02/06 09:55:47;;;;;;;;;;;2.10;88.20;;;;;;5016517;28;19913;-82
2023/02/06 09:58:14;;;;;;;;;;;2.30;85.60;;;;;;5019645;28;19932;-80
2023/02/06 10:00:44;;;;;;;;;;;2.70;84.10;;;;;;5024064;28;19933;-82
2023/02/06 10:03:41;;;;;;;;;;;2.80;82.50;;;;;;5017384;28;19913;-81
2023/02/06 10:06:19;;;;;;;;;;;2.60;83.10;;;;;;4988312;28;19914;-84
2023/02/06 10:08:47;;;;;;;;;;;2.20;84.80;;;;;;5008037;28;19910;-81
2023/02/06 10:11:15;;;;;;;;;;;2.10;84.10;;;;;;5025898;28;20354;-83
2023/02/06 10:13:48;;;;;;;;;;;2.10;84.40;;;;;;5007650;28;19933;-82
2023/02/06 10:16:20;;;;;;;;;;;2.30;84.40;;;;;;5006800;28;19985;-81
2023/02/06 10:18:49;;;;;;;;;;;2.40;83.30;;;;;;5007455;28;19989;-82
2023/02/06 10:21:26;;;;;;;;;;;2.30;81.40;;;;;;4988391;28;20386;-82
2023/02/06 10:24:10;;;;;;;;;;;2.10;82.30;;;;;;5008476;28;19910;-82
2023/02/06 10:26:37;;;;;;;;;;;2.00;81.20;;;;;;5005125;28;19925;-81
2023/02/06 10:29:03;;;;;;;;;;;1.90;82.80;;;;;;5005588;28;19968;-82
2023/02/06 10:31:34;;;;;;;;;;;2.10;83.10;;;;;;5044070;28;20083;-82
2023/02/06 10:34:03;;;;;;;;;;;2.40;82.80;;;;;;5045525;28;20255;-82
2023/02/06 10:36:50;;;;;;;;;;;2.60;80.90;;;;;;5028700;28;19909;-82
2023/02/06 10:39:38;;;;;;;;;;;2.80;80.80;;;;;;5047580;28;19973;-83
2023/02/06 10:42:10;;;;;;;;;;;3.00;78.90;;;;;;5026714;28;19917;-83
2023/02/06 10:45:00;;;;;;;;;;;2.90;78.40;;;;;;5044082;28;19910;-83
2023/02/06 10:47:37;;;;;;;;;;;3.10;77.80;;;;;;5025236;28;19916;-83
2023/02/06 10:50:26;;;;;;;;;;;3.20;78.40;;;;;;5009852;28;19909;-81
2023/02/06 10:52:53;;;;;;;;;;;3.20;77.00;;;;;;5035492;28;19960;-82
2023/02/06 10:55:24;;;;;;;;;;;3.00;76.80;;;;;;5045312;28;19985;-82
2023/02/06 10:57:56;;;;;;;;;;;2.70;77.40;;;;;;5042931;28;19913;-83
2023/02/06 11:00:25;;;;;;;;;;;2.50;78.00;;;;;;5043463;28;19909;-83
2023/02/06 11:03:03;;;;;;;;;;;2.50;79.20;;;;;;5034965;28;20166;-83
2023/02/06 11:05:30;;;;;;;;;;;2.50;80.70;;;;;;5002398;28;19909;-82
2023/02/06 11:08:08;;;;;;;;;;;2.50;80.00;;;;;;5002224;28;20009;-83
2023/02/06 11:10:34;;;;;;;;;;;2.30;79.20;;;;;;5003645;28;19945;-81
2023/02/06 11:13:04;;;;;;;;;;;2.10;80.70;;;;;;5004163;28;19910;-81
2023/02/06 11:15:37;;;;;;;;;;;2.10;80.80;;;;;;5003956;28;20408;-82
2023/02/06 11:18:04;;;;;;;;;;;1.90;81.80;;;;;;5010787;28;20275;-84
2023/02/06 11:20:32;;;;;;;;;;;1.90;83.00;;;;;;5016594;28;19985;-82
2023/02/06 11:23:15;;;;;;;;;;;2.00;82.70;;;;;;5022086;28;19960;-81
2023/02/06 11:25:41;;;;;;;;;;;2.10;82.70;;;;;;5005422;28;19916;-83
2023/02/06 11:28:16;;;;;;;;;;;2.10;81.70;;;;;;5004824;28;19963;-85
2023/02/06 11:30:52;;;;;;;;;;;2.10;81.60;;;;;;5022578;28;19925;-84
2023/02/06 11:33:21;;;;;;;;;;;2.20;81.00;;;;;;5028222;28;20068;-82
2023/02/06 11:35:57;;;;;;;;;;;2.30;81.40;;;;;;5036735;28;19933;-83
2023/02/06 11:38:26;;;;;;;;;;;2.50;79.90;;;;;;5024141;28;19940;-86
2023/02/06 11:40:59;;;;;;;;;;;2.70;78.90;;;;;;5006071;28;19937;-83
2023/02/06 11:43:27;;;;;;;;;;;2.70;79.90;;;;;;5001376;28;19913;-83
2023/02/06 11:46:12;;;;;;;;;;;2.70;80.60;;;;;;4985085;28;19910;-84
2023/02/06 11:51:16;;;;;;;;;;;2.90;79.20;;;;;;5008172;23;19926;-83
2023/02/06 11:54:13;;;;;;;;;;;3.10;78.00;;;;;;5003692;28;19924;-82
2023/02/06 11:57:15;;;;;;;;;;;3.00;78.10;;;;;;5023295;28;19909;-82
2023/02/06 11:59:49;;;;;;;;;;;2.90;78.00;;;;;;5018694;23;19997;-83
2023/02/06 12:02:40;;;;;;;;;;;2.80;78.70;;;;;;4965605;29;19950;-83
2023/02/06 12:05:11;;;;;;;;;;;2.60;79.10;;;;;;4955490;29;19918;-82
2023/02/06 12:07:40;;;;;;;;;;;2.50;79.30;;;;;;4964211;28;19962;-83
2023/02/06 12:10:13;;;;;;;;;;;2.50;79.20;;;;;;4959156;28;19958;-84
2023/02/06 12:12:41;;;;;;;;;;;2.60;77.90;;;;;;4966396;28;20398;-83
2023/02/06 12:15:11;;;;;;;;;;;2.60;79.00;;;;;;4985534;28;19917;-82
2023/02/06 12:17:41;;;;;;;;;;;2.70;80.00;;;;;;4982883;28;19941;-81
2023/02/06 12:20:11;;;;;;;;;;;2.70;78.20;;;;;;4993913;28;19914;-84
2023/02/06 12:25:42;;;;;;;;;;;2.60;79.00;;;;;;4979352;28;19924;-83
2023/02/06 12:31:47;;;;;;;;;;;2.30;79.40;;;;;;4927851;29;20093;-82
2023/02/06 12:53:17;;;;;;;;;;;;;;;;;;;;;
2023/02/06 12:56:37;;;;;;;;;;;1.80;83.10;;;;;;4985827;28;19941;-81
2023/02/06 13:04:45;;;;;;;;;;;1.60;83.90;;;;;;5011082;28;19994;-82
2023/02/06 13:26:55;;;;;;;;;;;1.00;88.20;;;;;;1380053;26;20068;-84
2023/02/06 13:29:34;;;;;;;;;;;0.90;88.30;;;;;;5009638;28;19918;-84
2023/02/06 13:35:32;;;;;;;;;;;0.80;88.90;;;;;;4998923;28;19914;-81
2023/02/06 13:44:20;;;;;;;;;;;0.70;89.80;;;;;;4957004;29;19942;-83
2023/02/06 13:47:06;;;;;;;;;;;0.80;89.90;;;;;;4959184;29;19939;-81
2023/02/06 13:49:54;;;;;;;;;;;0.80;89.30;;;;;;4982211;28;19914;-89
2023/02/06 13:52:19;;;;;;;;;;;0.80;89.10;;;;;;4975787;28;19922;-81
2023/02/06 13:54:45;;;;;;;;;;;0.80;88.80;;;;;;4977437;28;19921;-82
2023/02/06 13:57:29;;;;;;;;;;;0.70;88.60;;;;;;4986274;28;19914;-84
2023/02/06 14:00:14;;;;;;;;;;;0.70;88.80;;;;;;5017577;28;19913;-84
2023/02/06 14:02:41;;;;;;;;;;;0.70;90.00;;;;;;4995422;28;19957;-83
2023/02/06 14:05:11;;;;;;;;;;;0.70;89.10;;;;;;4997634;28;19910;-83
2023/02/06 14:07:40;;;;;;;;;;;0.70;89.00;;;;;;5003581;28;19910;-83
2023/02/06 14:18:56;;;;;;;;;;;0.60;89.90;;;;;;5106617;23;20054;-82
2023/02/06 14:31:34;;;;;;;;;;;;;;;;;;;;;
2023/02/06 14:34:09;;;;;;;;;;;0.80;88.30;;;;;;4999452;28;19989;-82
2023/02/06 14:39:51;;;;;;;;;;;1.10;87.20;;;;;;5047289;23;19933;-83
2023/02/06 14:49:21;;;;;;;;;;;1.00;83.40;;;;;;4966641;28;19979;-84
2023/02/06 14:52:04;;;;;;;;;;;0.90;83.90;;;;;;4953746;28;19937;-84
2023/02/06 14:58:04;;;;;;;;;;;0.90;83.50;;;;;;4927596;29;19995;-85
2023/02/06 15:08:31;;;;;;;;;;;0.70;82.00;;;;;;5108848;23;19929;-81
2023/02/06 15:11:32;;;;;;;;;;;0.70;81.40;;;;;;5041299;28;19997;-84
2023/02/06 15:17:37;;;;;;;;;;;0.50;81.40;;;;;;4976408;28;20427;-82
2023/02/06 15:20:33;;;;;;;;;;;0.70;82.30;;;;;;5032109;28;19913;-83
2023/02/06 15:26:35;;;;;;;;;;;0.80;79.40;;;;;;5042046;28;19968;-85
2023/02/06 15:53:30;;;;;;;;;;;;;;;;;;;;;
2023/02/06 16:06:44;;;;;;;;;;;0.30;81.80;;;;;;4999295;28;20310;-85
2023/02/06 16:09:34;;;;;;;;;;;0.30;82.30;;;;;;5012588;23;20011;-84
2023/02/06 16:15:33;;;;;;;;;;;0.30;81.90;;;;;;5006123;28;20059;-88
2023/02/06 16:21:14;;;;;;;;;;;0.30;83.40;;;;;;5038020;23;19941;-86
2023/02/06 16:24:02;;;;;;;;;;;0.20;84.00;;;;;;5014059;28;19988;-85
2023/02/06 16:26:56;;;;;;;;;;;0.30;84.20;;;;;;5004849;28;19919;-85
2023/02/06 16:29:25;;;;;;;;;;;0.30;84.40;;;;;;5023472;28;19910;-82
2023/02/06 16:31:55;;;;;;;;;;;0.30;83.90;;;;;;4994377;28;20045;-84
2023/02/06 16:34:30;;;;;;;;;;;0.30;83.80;;;;;;5013942;28;19910;-83
2023/02/06 16:36:55;;;;;;;;;;;0.30;83.70;;;;;;4989989;28;19921;-82
2023/02/06 16:39:21;;;;;;;;;;;0.20;83.80;;;;;;5021315;28;19909;-83
2023/02/06 16:41:50;;;;;;;;;;;0.20;83.90;;;;;;5030742;28;19969;-82
2023/02/06 16:44:16;;;;;;;;;;;0.30;84.60;;;;;;5005773;28;19981;-81
2023/02/06 16:46:42;;;;;;;;;;;0.20;84.00;;;;;;5016588;28;19933;-80
2023/02/06 16:49:11;;;;;;;;;;;0.20;84.20;;;;;;5014891;28;19918;-82
2023/02/06 16:51:38;;;;;;;;;;;0.10;85.50;;;;;;5014532;28;19937;-82
2023/02/06 16:54:05;;;;;;;;;;;0.10;84.90;;;;;;5026291;28;20035;-81
2023/02/06 16:56:31;;;;;;;;;;;0.10;85.00;;;;;;5020120;28;19933;-81
2023/02/06 16:58:56;;;;;;;;;;;0.10;84.90;;;;;;5014252;28;19958;-81
2023/02/06 17:01:28;;;;;;;;;;;0.20;85.30;;;;;;5020491;28;19913;-82
2023/02/06 17:03:54;;;;;;;;;;;0.10;84.70;;;;;;5024638;28;19932;-81
2023/02/06 17:06:22;;;;;;;;;;;0.20;85.60;;;;;;5010503;28;19910;-82
2023/02/06 17:08:48;;;;;;;;;;;0.20;86.10;;;;;;5007826;28;19959;-81
2023/02/06 17:11:14;;;;;;;;;;;0.20;86.00;;;;;;5022708;28;19925;-80
2023/02/06 17:13:39;;;;;;;;;;;0.20;86.60;;;;;;5014973;28;19914;-80
2023/02/06 17:16:05;;;;;;;;;;;0.20;87.10;;;;;;5027316;28;19909;-81
2023/02/06 17:18:31;;;;;;;;;;;0.20;87.40;;;;;;5003571;28;19964;-81
2023/02/06 17:20:56;;;;;;;;;;;0.20;87.30;;;;;;5017436;28;19918;-82
2023/02/06 17:23:22;;;;;;;;;;;0.10;88.10;;;;;;5021753;28;19910;-82
2023/02/06 17:25:48;;;;;;;;;;;0.20;88.80;;;;;;5008203;28;19967;-81
2023/02/06 17:28:15;;;;;;;;;;;0.10;89.90;;;;;;5021808;28;19928;-81
2023/02/06 17:30:40;;;;;;;;;;;0.10;89.50;;;;;;5026925;28;20334;-81
2023/02/06 17:33:06;;;;;;;;;;;0.10;89.80;;;;;;5008632;28;19973;-81
2023/02/06 17:35:32;;;;;;;;;;;0.10;89.90;;;;;;5012549;28;19913;-80
2023/02/06 17:37:57;;;;;;;;;;;0.10;90.00;;;;;;5017778;28;19973;-82
2023/02/06 17:40:24;;;;;;;;;;;0.20;89.80;;;;;;5005426;28;19914;-80
2023/02/06 17:42:50;;;;;;;;;;;0.10;90.00;;;;;;5009962;28;19942;-80
2023/02/06 17:45:15;;;;;;;;;;;0.10;90.10;;;;;;5014751;28;20393;-81
2023/02/06 17:47:41;;;;;;;;;;;0.10;90.20;;;;;;4998437;28;19960;-80
2023/02/06 17:50:07;;;;;;;;;;;0.10;90.20;;;;;;5016251;28;19943;-80
2023/02/06 17:52:33;;;;;;;;;;;0.00;90.40;;;;;;5007605;28;19925;-81
2023/02/06 17:54:58;;;;;;;;;;;0.00;90.20;;;;;;5008064;28;20375;-81
2023/02/06 17:57:24;;;;;;;;;;;0.00;90.50;;;;;;5014699;28;19921;-81
2023/02/06 17:59:53;;;;;;;;;;;0.00;90.70;;;;;;5017275;28;19921;-80
2023/02/06 18:02:18;;;;;;;;;;;0.00;90.80;;;;;;5009399;28;19997;-81
2023/02/06 18:04:47;;;;;;;;;;;0.00;91.00;;;;;;4984610;28;20335;-82
2023/02/06 18:07:13;;;;;;;;;;;0.00;91.10;;;;;;4996582;28;19965;-81
2023/02/06 18:09:39;;;;;;;;;;;0.00;90.90;;;;;;5004054;28;19997;-82